sensor_id;sensor_type;location;lat;lon;timestamp;pressure;altitude;pressure_sealevel;temperature;humidity
33185;BME280;19550;42.872;25.494;2023-03-04T00:01:24;96395.66;;;5.49;100.00
33185;BME280;19550;42.872;25.494;2023-03-04T00:03:51;96400.38;;;5.43;100.00
33185;BME280;19550;42.872;25.494;2023-03-04T00:06:19;96389.38;;;5.43;100.00
33185;BME280;19550;42.872;25.494;2023-03-04T00:08:46;96385.88;;;5.38;100.00
33185;BME280;19550;42.872;25.494;2023-03-04T00:11:13;96380.53;;;5.51;100.00
33185;BME280;19550;42.872;25.494;2023-03-04T00:13:39;96381.63;;;5.50;100.00
33185;BME280;19550;42.872;25.494;2023-03-04T00:16:06;96373.72;;;5.44;100.00
33185;BME280;19550;42.872;25.494;2023-03-04T00:18:33;96371.91;;;5.29;100.00
33185;BME280;19550;42.872;25.494;2023-03-04T00:21:00;96374.19;;;5.22;100.00
33185;BME280;19550;42.872;25.494;2023-03-04T00:23:28;96370.88;;;5.20;100.00
33185;BME280;19550;42.872;25.494;2023-03-04T00:25:55;96361.25;;;5.23;100.00
33185;BME280;19550;42.872;25.494;2023-03-04T00:28:22;96372.25;;;5.23;100.00
33185;BME280;19550;42.872;25.494;2023-03-04T00:30:49;96366.81;;;5.17;100.00
33185;BME280;19550;42.872;25.494;2023-03-04T00:33:16;96370.22;;;4.99;100.00
33185;BME280;19550;42.872;25.494;2023-03-04T00:35:42;96365.69;;;4.79;100.00
33185;BME280;19550;42.872;25.494;2023-03-04T00:38:09;96383.09;;;4.60;100.00
33185;BME280;19550;42.872;25.494;2023-03-04T00:40:37;96380.38;;;4.60;100.00
33185;BME280;19550;42.872;25.494;2023-03-04T00:43:04;96379.84;;;4.58;100.00
33185;BME280;19550;42.872;25.494;2023-03-04T00:45:31;96385.03;;;4.64;100.00
33185;BME280;19550;42.872;25.494;2023-03-04T00:47:58;96382.03;;;4.56;100.00
33185;BME280;19550;42.872;25.494;2023-03-04T00:50:25;96375.19;;;4.53;100.00
33185;BME280;19550;42.872;25.494;2023-03-04T00:52:51;96365.88;;;4.49;100.00
33185;BME280;19550;42.872;25.494;2023-03-04T00:55:18;96367.56;;;4.40;100.00
33185;BME280;19550;42.872;25.494;2023-03-04T00:57:46;96368.69;;;4.34;100.00
33185;BME280;19550;42.872;25.494;2023-03-04T01:00:14;96373.38;;;4.33;100.00
33185;BME280;19550;42.872;25.494;2023-03-04T01:02:41;96375.63;;;4.21;100.00
33185;BME280;19550;42.872;25.494;2023-03-04T01:05:08;96375.09;;;4.14;100.00
33185;BME280;19550;42.872;25.494;2023-03-04T01:07:35;96374.78;;;4.21;100.00
33185;BME280;19550;42.872;25.494;2023-03-04T01:10:03;96376.19;;;4.18;100.00
33185;BME280;19550;42.872;25.494;2023-03-04T01:12:29;96377.88;;;4.09;100.00
33185;BME280;19550;42.872;25.494;2023-03-04T01:14:58;96374.56;;;4.07;100.00
33185;BME280;19550;42.872;25.494;2023-03-04T01:17:24;96384.72;;;4.12;100.00
33185;BME280;19550;42.872;25.494;2023-03-04T01:19:51;96381.09;;;4.21;100.00
33185;BME280;19550;42.872;25.494;2023-03-04T01:22:18;96382.72;;;4.27;100.00
33185;BME280;19550;42.872;25.494;2023-03-04T01:24:45;96381.66;;;4.23;100.00
33185;BME280;19550;42.872;25.494;2023-03-04T01:27:12;96371.47;;;4.29;100.00
33185;BME280;19550;42.872;25.494;2023-03-04T01:29:39;96375.28;;;4.38;100.00
33185;BME280;19550;42.872;25.494;2023-03-04T01:32:07;96369.19;;;4.46;100.00
33185;BME280;19550;42.872;25.494;2023-03-04T01:34:34;96367.53;;;4.50;100.00
33185;BME280;19550;42.872;25.494;2023-03-04T01:37:00;96365.03;;;4.54;100.00
33185;BME280;19550;42.872;25.494;2023-03-04T01:39:27;96371.66;;;4.48;100.00
33185;BME280;19550;42.872;25.494;2023-03-04T01:41:54;96370.88;;;4.42;100.00
33185;BME280;19550;42.872;25.494;2023-03-04T01:44:21;96363.50;;;4.37;100.00
33185;BME280;19550;42.872;25.494;2023-03-04T01:46:51;96361.84;;;4.36;100.00
33185;BME280;19550;42.872;25.494;2023-03-04T01:49:19;96365.13;;;4.38;100.00
33185;BME280;19550;42.872;25.494;2023-03-04T01:51:48;96363.94;;;4.55;100.00
33185;BME280;19550;42.872;25.494;2023-03-04T01:54:17;96371.50;;;4.73;100.00
33185;BME280;19550;42.872;25.494;2023-03-04T01:56:46;96362.78;;;4.61;100.00
33185;BME280;19550;42.872;25.494;2023-03-04T01:59:15;96361.16;;;4.60;100.00
33185;BME280;19550;42.872;25.494;2023-03-04T02:01:44;96371.34;;;4.54;100.00
33185;BME280;19550;42.872;25.494;2023-03-04T02:04:12;96354.09;;;4.49;100.00
33185;BME280;19550;42.872;25.494;2023-03-04T02:06:41;96362.78;;;4.61;100.00
33185;BME280;19550;42.872;25.494;2023-03-04T02:09:09;96361.78;;;4.52;100.00
33185;BME280;19550;42.872;25.494;2023-03-04T02:11:37;96369.41;;;4.55;100.00
33185;BME280;19550;42.872;25.494;2023-03-04T02:14:04;96360.38;;;4.54;100.00
33185;BME280;19550;42.872;25.494;2023-03-04T02:16:31;96367.78;;;4.54;100.00
33185;BME280;19550;42.872;25.494;2023-03-04T02:18:58;96361.66;;;4.67;100.00
33185;BME280;19550;42.872;25.494;2023-03-04T02:21:27;96364.72;;;4.60;100.00
33185;BME280;19550;42.872;25.494;2023-03-04T02:24:05;96360.91;;;4.56;100.00
33185;BME280;19550;42.872;25.494;2023-03-04T02:26:37;96361.78;;;4.52;100.00
33185;BME280;19550;42.872;25.494;2023-03-04T02:29:06;96369.69;;;4.53;100.00
33185;BME280;19550;42.872;25.494;2023-03-04T02:31:36;96369.13;;;4.56;100.00
33185;BME280;19550;42.872;25.494;2023-03-04T02:34:06;96366.94;;;4.58;100.00
33185;BME280;19550;42.872;25.494;2023-03-04T02:36:34;96357.38;;;4.51;100.00
33185;BME280;19550;42.872;25.494;2023-03-04T02:39:04;96362.56;;;4.52;100.00
33185;BME280;19550;42.872;25.494;2023-03-04T02:41:33;96354.91;;;4.49;100.00
33185;BME280;19550;42.872;25.494;2023-03-04T02:44:01;96358.44;;;4.55;100.00
33185;BME280;19550;42.872;25.494;2023-03-04T02:46:28;96359.50;;;4.59;100.00
33185;BME280;19550;42.872;25.494;2023-03-04T02:48:55;96351.84;;;4.56;100.00
33185;BME280;19550;42.872;25.494;2023-03-04T02:51:22;96365.31;;;4.52;100.00
33185;BME280;19550;42.872;25.494;2023-03-04T02:53:48;96365.03;;;4.54;100.00
33185;BME280;19550;42.872;25.494;2023-03-04T02:56:15;96361.16;;;4.60;100.00
33185;BME280;19550;42.872;25.494;2023-03-04T02:58:42;96361.16;;;4.60;100.00
33185;BME280;19550;42.872;25.494;2023-03-04T03:01:10;96364.50;;;4.52;100.00
33185;BME280;19550;42.872;25.494;2023-03-04T03:03:37;96361.94;;;4.65;100.00
33185;BME280;19550;42.872;25.494;2023-03-04T03:06:04;96357.31;;;4.61;100.00
33185;BME280;19550;42.872;25.494;2023-03-04T03:08:31;96365.31;;;4.57;100.00
33185;BME280;19550;42.872;25.494;2023-03-04T03:10:58;96362.28;;;4.54;100.00
33185;BME280;19550;42.872;25.494;2023-03-04T03:13:24;96353.81;;;4.50;100.00
33185;BME280;19550;42.872;25.494;2023-03-04T03:15:51;96362.84;;;4.56;100.00
33185;BME280;19550;42.872;25.494;2023-03-04T03:18:19;96355.97;;;4.53;100.00
33185;BME280;19550;42.872;25.494;2023-03-04T03:20:46;96352.88;;;4.70;100.00
33185;BME280;19550;42.872;25.494;2023-03-04T03:23:13;96358.53;;;4.84;100.00
33185;BME280;19550;42.872;25.494;2023-03-04T03:25:42;96348.06;;;4.86;100.00
33185;BME280;19550;42.872;25.494;2023-03-04T03:28:09;96346.22;;;4.76;100.00
33185;BME280;19550;42.872;25.494;2023-03-04T03:30:36;96353.69;;;4.70;100.00
33185;BME280;19550;42.872;25.494;2023-03-04T03:33:02;96357.53;;;4.69;100.00
33185;BME280;19550;42.872;25.494;2023-03-04T03:35:31;96350.72;;;4.62;100.00
33185;BME280;19550;42.872;25.494;2023-03-04T03:37:57;96357.81;;;4.68;100.00
33185;BME280;19550;42.872;25.494;2023-03-04T03:40:24;96353.41;;;4.72;100.00
33185;BME280;19550;42.872;25.494;2023-03-04T03:42:51;96345.03;;;4.87;100.00
33185;BME280;19550;42.872;25.494;2023-03-04T03:45:18;96352.13;;;4.93;100.00
33185;BME280;19550;42.872;25.494;2023-03-04T03:47:44;96348.34;;;4.89;100.00
33185;BME280;19550;42.872;25.494;2023-03-04T03:50:11;96358.25;;;4.85;100.00
33185;BME280;19550;42.872;25.494;2023-03-04T03:52:39;96357.13;;;4.91;100.00
33185;BME280;19550;42.872;25.494;2023-03-04T03:55:07;96356.56;;;4.89;100.00
33185;BME280;19550;42.872;25.494;2023-03-04T03:57:34;96358.81;;;4.82;100.00
33185;BME280;19550;42.872;25.494;2023-03-04T04:00:01;96359.13;;;4.75;100.00
33185;BME280;19550;42.872;25.494;2023-03-04T04:02:28;96356.72;;;4.69;100.00
33185;BME280;19550;42.872;25.494;2023-03-04T04:04:55;96365.19;;;4.72;100.00
33185;BME280;19550;42.872;25.494;2023-03-04T04:07:21;96359.97;;;4.76;100.00
33185;BME280;19550;42.872;25.494;2023-03-04T04:09:50;96363.66;;;4.95;100.00
33185;BME280;19550;42.872;25.494;2023-03-04T04:12:18;96362.63;;;4.86;100.00
33185;BME280;19550;42.872;25.494;2023-03-04T04:14:45;96370.34;;;4.84;100.00
33185;BME280;19550;42.872;25.494;2023-03-04T04:17:12;96364.06;;;4.78;100.00
33185;BME280;19550;42.872;25.494;2023-03-04T04:19:39;96363.72;;;4.90;100.00
33185;BME280;19550;42.872;25.494;2023-03-04T04:22:07;96362.63;;;4.86;100.00
33185;BME280;19550;42.872;25.494;2023-03-04T04:24:38;96353.59;;;4.80;100.00
33185;BME280;19550;42.872;25.494;2023-03-04T04:27:07;96352.53;;;4.76;100.00
33185;BME280;19550;42.872;25.494;2023-03-04T04:29:34;96359.97;;;4.76;100.00
33185;BME280;19550;42.872;25.494;2023-03-04T04:32:00;96345.66;;;4.79;100.00
33185;BME280;19550;42.872;25.494;2023-03-04T04:34:28;96343.22;;;4.77;100.00
33185;BME280;19550;42.872;25.494;2023-03-04T04:36:55;96344.59;;;4.75;100.00
33185;BME280;19550;42.872;25.494;2023-03-04T04:39:22;96350.34;;;4.78;100.00
33185;BME280;19550;42.872;25.494;2023-03-04T04:41:48;96340.81;;;5.05;100.00
33185;BME280;19550;42.872;25.494;2023-03-04T04:44:16;96333.41;;;5.00;100.00
33185;BME280;19550;42.872;25.494;2023-03-04T04:46:43;96344.13;;;5.02;100.00
33185;BME280;19550;42.872;25.494;2023-03-04T04:49:10;96355.16;;;4.97;100.00
33185;BME280;19550;42.872;25.494;2023-03-04T04:51:37;96354.38;;;4.86;100.00
33185;BME280;19550;42.872;25.494;2023-03-04T04:54:05;96352.78;;;4.80;100.00
33185;BME280;19550;42.872;25.494;2023-03-04T04:56:32;96353.38;;;4.77;100.00
33185;BME280;19550;42.872;25.494;2023-03-04T04:59:02;96355.34;;;4.71;100.00
33185;BME280;19550;42.872;25.494;2023-03-04T05:01:31;96364.88;;;4.79;100.00
33185;BME280;19550;42.872;25.494;2023-03-04T05:03:58;96354.50;;;4.71;100.00
33185;BME280;19550;42.872;25.494;2023-03-04T05:06:25;96360.50;;;4.78;100.00
33185;BME280;19550;42.872;25.494;2023-03-04T05:08:52;96358.34;;;4.70;100.00
33185;BME280;19550;42.872;25.494;2023-03-04T05:11:19;96358.31;;;4.75;100.00
33185;BME280;19550;42.872;25.494;2023-03-04T05:13:47;96366.50;;;4.80;100.00
33185;BME280;19550;42.872;25.494;2023-03-04T05:16:15;96367.59;;;4.84;100.00
33185;BME280;19550;42.872;25.494;2023-03-04T05:18:43;96378.53;;;4.89;100.00
33185;BME280;19550;42.872;25.494;2023-03-04T05:21:10;96381.84;;;4.91;100.00
33185;BME280;19550;42.872;25.494;2023-03-04T05:23:39;96376.28;;;4.96;100.00
33185;BME280;19550;42.872;25.494;2023-03-04T05:26:07;96386.19;;;4.92;100.00
33185;BME280;19550;42.872;25.494;2023-03-04T05:28:35;96389.25;;;4.91;100.00
33185;BME280;19550;42.872;25.494;2023-03-04T05:31:02;96385.88;;;5.04;100.00
33185;BME280;19550;42.872;25.494;2023-03-04T05:33:29;96392.38;;;5.13;100.00
33185;BME280;19550;42.872;25.494;2023-03-04T05:35:58;96389.16;;;5.01;100.00
33185;BME280;19550;42.872;25.494;2023-03-04T05:38:25;96396.63;;;4.95;100.00
33185;BME280;19550;42.872;25.494;2023-03-04T05:40:56;96386.47;;;4.96;100.00
33185;BME280;19550;42.872;25.494;2023-03-04T05:43:24;96390.00;;;5.01;100.00
33185;BME280;19550;42.872;25.494;2023-03-04T05:45:50;96391.81;;;5.16;100.00
33185;BME280;19550;42.872;25.494;2023-03-04T05:48:17;96387.63;;;5.24;100.00
33185;BME280;19550;42.872;25.494;2023-03-04T05:50:44;96380.56;;;5.12;100.00
33185;BME280;19550;42.872;25.494;2023-03-04T05:53:13;96390.22;;;5.10;100.00
33185;BME280;19550;42.872;25.494;2023-03-04T05:55:39;96390.72;;;5.17;100.00
33185;BME280;19550;42.872;25.494;2023-03-04T05:58:06;96396.94;;;5.28;100.00
33185;BME280;19550;42.872;25.494;2023-03-04T06:00:33;96403.34;;;5.18;100.00
33185;BME280;19550;42.872;25.494;2023-03-04T06:03:00;96397.25;;;5.21;100.00
33185;BME280;19550;42.872;25.494;2023-03-04T06:05:26;96393.47;;;5.17;100.00
33185;BME280;19550;42.872;25.494;2023-03-04T06:07:53;96401.94;;;5.20;100.00
33185;BME280;19550;42.872;25.494;2023-03-04T06:10:22;96402.53;;;5.12;100.00
33185;BME280;19550;42.872;25.494;2023-03-04T06:12:49;96402.84;;;5.11;100.00
33185;BME280;19550;42.872;25.494;2023-03-04T06:15:15;96395.25;;;5.32;100.00
33185;BME280;19550;42.872;25.494;2023-03-04T06:17:42;96409.19;;;5.40;100.00
33185;BME280;19550;42.872;25.494;2023-03-04T06:20:10;96408.81;;;5.52;100.00
33185;BME280;19550;42.872;25.494;2023-03-04T06:22:37;96399.56;;;5.43;100.00
33185;BME280;19550;42.872;25.494;2023-03-04T06:25:05;96409.44;;;5.44;100.00
33185;BME280;19550;42.872;25.494;2023-03-04T06:27:33;96411.13;;;5.40;100.00
33185;BME280;19550;42.872;25.494;2023-03-04T06:30:00;96405.94;;;5.33;100.00
33185;BME280;19550;42.872;25.494;2023-03-04T06:32:27;96399.63;;;5.33;100.00
33185;BME280;19550;42.872;25.494;2023-03-04T06:34:54;96396.81;;;5.43;100.00
33185;BME280;19550;42.872;25.494;2023-03-04T06:37:21;96398.63;;;5.52;100.00
33185;BME280;19550;42.872;25.494;2023-03-04T06:39:48;96399.66;;;5.62;100.00
33185;BME280;19550;42.872;25.494;2023-03-04T06:42:14;96397.63;;;5.72;100.00
33185;BME280;19550;42.872;25.494;2023-03-04T06:44:43;96394.59;;;5.74;100.00
33185;BME280;19550;42.872;25.494;2023-03-04T06:47:10;96396.19;;;5.80;100.00
33185;BME280;19550;42.872;25.494;2023-03-04T06:49:36;96402.75;;;5.84;100.00
33185;BME280;19550;42.872;25.494;2023-03-04T06:52:03;96392.25;;;5.91;100.00
33185;BME280;19550;42.872;25.494;2023-03-04T06:54:30;96394.13;;;5.95;100.00
33185;BME280;19550;42.872;25.494;2023-03-04T06:56:57;96399.22;;;6.07;100.00
33185;BME280;19550;42.872;25.494;2023-03-04T06:59:24;96393.03;;;5.96;100.00
33185;BME280;19550;42.872;25.494;2023-03-04T07:01:52;96398.25;;;5.98;100.00
33185;BME280;19550;42.872;25.494;2023-03-04T07:04:19;96396.81;;;6.01;100.00
33185;BME280;19550;42.872;25.494;2023-03-04T07:06:48;96395.00;;;6.15;100.00
33185;BME280;19550;42.872;25.494;2023-03-04T07:09:15;96394.47;;;6.13;100.00
33185;BME280;19550;42.872;25.494;2023-03-04T07:11:42;96395.56;;;6.17;100.00
33185;BME280;19550;42.872;25.494;2023-03-04T07:14:09;96391.91;;;6.21;100.00
33185;BME280;19550;42.872;25.494;2023-03-04T07:16:36;96402.38;;;6.19;100.00
33185;BME280;19550;42.872;25.494;2023-03-04T07:19:04;96398.81;;;6.19;100.00
33185;BME280;19550;42.872;25.494;2023-03-04T07:21:32;96411.66;;;6.28;100.00
33185;BME280;19550;42.872;25.494;2023-03-04T07:23:59;96400.06;;;6.31;100.00
33185;BME280;19550;42.872;25.494;2023-03-04T07:26:25;96396.44;;;6.36;100.00
33185;BME280;19550;42.872;25.494;2023-03-04T07:28:52;96399.00;;;6.51;100.00
33185;BME280;19550;42.872;25.494;2023-03-04T07:31:23;96395.53;;;6.64;100.00
33185;BME280;19550;42.872;25.494;2023-03-04T07:33:51;96395.00;;;6.81;100.00
33185;BME280;19550;42.872;25.494;2023-03-04T07:36:23;96396.44;;;6.97;100.00
33185;BME280;19550;42.872;25.494;2023-03-04T07:38:50;96397.09;;;7.08;100.00
33185;BME280;19550;42.872;25.494;2023-03-04T07:41:20;96398.34;;;7.15;100.00
33185;BME280;19550;42.872;25.494;2023-03-04T07:43:47;96389.28;;;7.15;100.00
33185;BME280;19550;42.872;25.494;2023-03-04T07:46:14;96389.19;;;7.20;100.00
33185;BME280;19550;42.872;25.494;2023-03-04T07:48:41;96371.59;;;7.35;100.00
33185;BME280;19550;42.872;25.494;2023-03-04T07:51:10;96373.44;;;7.39;100.00
33185;BME280;19550;42.872;25.494;2023-03-04T07:53:39;96375.22;;;7.49;100.00
33185;BME280;19550;42.872;25.494;2023-03-04T07:56:10;96370.84;;;7.62;100.00
33185;BME280;19550;42.872;25.494;2023-03-04T07:58:38;96368.69;;;7.91;100.00
33185;BME280;19550;42.872;25.494;2023-03-04T08:01:08;96377.28;;;8.03;100.00
33185;BME280;19550;42.872;25.494;2023-03-04T08:03:35;96368.59;;;8.23;100.00
33185;BME280;19550;42.872;25.494;2023-03-04T08:06:04;96376.69;;;8.33;100.00
33185;BME280;19550;42.872;25.494;2023-03-04T08:08:31;96376.69;;;8.33;100.00
33185;BME280;19550;42.872;25.494;2023-03-04T08:10:59;96374.16;;;8.51;100.00
33185;BME280;19550;42.872;25.494;2023-03-04T08:13:26;96370.84;;;8.76;100.00
33185;BME280;19550;42.872;25.494;2023-03-04T08:15:54;96364.63;;;9.06;100.00
33185;BME280;19550;42.872;25.494;2023-03-04T08:18:22;96367.66;;;9.18;100.00
33185;BME280;19550;42.872;25.494;2023-03-04T08:20:48;96372.06;;;9.20;100.00
33185;BME280;19550;42.872;25.494;2023-03-04T08:23:15;96367.56;;;9.24;100.00
33185;BME280;19550;42.872;25.494;2023-03-04T08:25:42;96359.25;;;9.24;100.00
33185;BME280;19550;42.872;25.494;2023-03-04T08:28:10;96368.25;;;9.29;100.00
33185;BME280;19550;42.872;25.494;2023-03-04T08:30:38;96370.06;;;9.56;100.00
33185;BME280;19550;42.872;25.494;2023-03-04T08:33:06;96364.06;;;9.85;100.00
33185;BME280;19550;42.872;25.494;2023-03-04T08:35:35;96355.63;;;9.90;100.00
33185;BME280;19550;42.872;25.494;2023-03-04T08:38:02;96351.16;;;10.11;100.00
33185;BME280;19550;42.872;25.494;2023-03-04T08:40:29;96357.13;;;10.27;100.00
33185;BME280;19550;42.872;25.494;2023-03-04T08:42:56;96354.13;;;10.15;100.00
33185;BME280;19550;42.872;25.494;2023-03-04T08:45:24;96355.09;;;10.10;100.00
33185;BME280;19550;42.872;25.494;2023-03-04T08:47:51;96348.16;;;10.21;100.00
33185;BME280;19550;42.872;25.494;2023-03-04T08:50:18;96346.38;;;10.25;100.00
33185;BME280;19550;42.872;25.494;2023-03-04T08:52:46;96341.78;;;10.21;100.00
33185;BME280;19550;42.872;25.494;2023-03-04T08:55:13;96337.44;;;10.28;100.00
33185;BME280;19550;42.872;25.494;2023-03-04T08:57:39;96342.84;;;10.42;100.00
33185;BME280;19550;42.872;25.494;2023-03-04T09:00:07;96338.00;;;10.56;100.00
33185;BME280;19550;42.872;25.494;2023-03-04T09:02:36;96343.41;;;10.61;100.00
33185;BME280;19550;42.872;25.494;2023-03-04T09:05:03;96333.78;;;10.67;100.00
33185;BME280;19550;42.872;25.494;2023-03-04T09:07:30;96328.06;;;10.55;100.00
33185;BME280;19550;42.872;25.494;2023-03-04T09:09:57;96339.78;;;10.44;100.00
33185;BME280;19550;42.872;25.494;2023-03-04T09:12:23;96334.38;;;10.47;100.00
33185;BME280;19550;42.872;25.494;2023-03-04T09:14:50;96334.91;;;10.49;98.14
33185;BME280;19550;42.872;25.494;2023-03-04T09:17:17;96338.31;;;10.55;95.02
33185;BME280;19550;42.872;25.494;2023-03-04T09:19:45;96331.53;;;10.69;94.62
33185;BME280;19550;42.872;25.494;2023-03-04T09:22:12;96328.75;;;10.69;95.02
33185;BME280;19550;42.872;25.494;2023-03-04T09:24:39;96329.91;;;10.86;92.59
33185;BME280;19550;42.872;25.494;2023-03-04T09:27:06;96334.00;;;10.97;91.24
33185;BME280;19550;42.872;25.494;2023-03-04T09:29:32;96325.50;;;11.10;92.88
33185;BME280;19550;42.872;25.494;2023-03-04T09:32:00;96326.84;;;11.22;93.50
33185;BME280;19550;42.872;25.494;2023-03-04T09:34:27;96324.03;;;11.47;93.68
33185;BME280;19550;42.872;25.494;2023-03-04T09:36:55;96318.81;;;11.63;92.25
33185;BME280;19550;42.872;25.494;2023-03-04T09:39:22;96318.78;;;11.72;92.19
33185;BME280;19550;42.872;25.494;2023-03-04T09:41:50;96326.63;;;11.61;92.93
33185;BME280;19550;42.872;25.494;2023-03-04T09:44:23;96312.59;;;11.57;92.78
33185;BME280;19550;42.872;25.494;2023-03-04T09:46:51;96314.22;;;11.59;90.66
33185;BME280;19550;42.872;25.494;2023-03-04T09:49:22;96315.34;;;11.66;92.33
33185;BME280;19550;42.872;25.494;2023-03-04T09:52:00;96296.59;;;11.63;92.50
33185;BME280;19550;42.872;25.494;2023-03-04T09:54:50;96306.91;;;11.37;93.04
33185;BME280;19550;42.872;25.494;2023-03-04T09:57:27;96302.50;;;11.36;93.15
33185;BME280;19550;42.872;25.494;2023-03-04T10:00:04;96301.53;;;11.40;94.23
33185;BME280;19550;42.872;25.494;2023-03-04T10:02:43;96301.66;;;11.52;96.80
33185;BME280;19550;42.872;25.494;2023-03-04T10:05:15;96294.97;;;11.53;94.82
33185;BME280;19550;42.872;25.494;2023-03-04T10:07:47;96293.81;;;11.54;95.38
33185;BME280;19550;42.872;25.494;2023-03-04T10:10:18;96290.38;;;11.66;96.69
33185;BME280;19550;42.872;25.494;2023-03-04T10:12:47;96293.16;;;11.57;97.22
33185;BME280;19550;42.872;25.494;2023-03-04T10:15:17;96282.59;;;11.42;95.98
33185;BME280;19550;42.872;25.494;2023-03-04T10:17:51;96283.22;;;11.39;95.83
33185;BME280;19550;42.872;25.494;2023-03-04T10:20:22;96275.59;;;11.28;95.59
33185;BME280;19550;42.872;25.494;2023-03-04T10:22:52;96275.59;;;11.19;96.16
33185;BME280;19550;42.872;25.494;2023-03-04T10:25:23;96263.19;;;11.17;96.95
33185;BME280;19550;42.872;25.494;2023-03-04T10:27:53;96263.50;;;11.24;96.91
33185;BME280;19550;42.872;25.494;2023-03-04T10:30:29;96267.44;;;11.23;96.53
33185;BME280;19550;42.872;25.494;2023-03-04T10:32:58;96263.81;;;11.31;97.50
33185;BME280;19550;42.872;25.494;2023-03-04T10:35:28;96259.06;;;11.40;96.78
33185;BME280;19550;42.872;25.494;2023-03-04T10:38:02;96260.53;;;11.46;96.30
33185;BME280;19550;42.872;25.494;2023-03-04T10:40:36;96257.94;;;11.49;95.38
33185;BME280;19550;42.872;25.494;2023-03-04T10:43:03;96247.66;;;11.41;94.14
33185;BME280;19550;42.872;25.494;2023-03-04T10:45:37;96245.31;;;11.61;93.46
33185;BME280;19550;42.872;25.494;2023-03-04T10:48:05;96239.56;;;11.66;95.41
33185;BME280;19550;42.872;25.494;2023-03-04T10:50:32;96240.09;;;11.59;94.29
33185;BME280;19550;42.872;25.494;2023-03-04T10:53:00;96228.16;;;11.67;93.61
33185;BME280;19550;42.872;25.494;2023-03-04T10:55:29;96228.91;;;11.85;93.76
33185;BME280;19550;42.872;25.494;2023-03-04T10:58:11;96222.47;;;12.02;90.87
33185;BME280;19550;42.872;25.494;2023-03-04T11:00:39;96215.06;;;12.14;89.27
33185;BME280;19550;42.872;25.494;2023-03-04T11:03:24;96215.25;;;12.09;88.43
33185;BME280;19550;42.872;25.494;2023-03-04T11:06:08;96218.84;;;12.10;90.47
33185;BME280;19550;42.872;25.494;2023-03-04T11:08:38;96209.75;;;12.01;91.96
33185;BME280;19550;42.872;25.494;2023-03-04T11:11:21;96218.31;;;11.87;94.45
33185;BME280;19550;42.872;25.494;2023-03-04T11:13:52;96207.38;;;11.82;94.78
33185;BME280;19550;42.872;25.494;2023-03-04T11:16:26;96202.13;;;11.89;93.09
33185;BME280;19550;42.872;25.494;2023-03-04T11:18:57;96192.28;;;11.91;93.31
33185;BME280;19550;42.872;25.494;2023-03-04T11:21:31;96196.09;;;11.87;94.31
33185;BME280;19550;42.872;25.494;2023-03-04T11:24:03;96183.44;;;11.98;94.50
33185;BME280;19550;42.872;25.494;2023-03-04T11:26:34;96189.81;;;11.99;92.26
33185;BME280;19550;42.872;25.494;2023-03-04T11:29:09;96180.94;;;12.05;93.71
33185;BME280;19550;42.872;25.494;2023-03-04T11:31:44;96188.75;;;12.12;92.63
33185;BME280;19550;42.872;25.494;2023-03-04T11:34:16;96182.94;;;12.25;92.17
33185;BME280;19550;42.872;25.494;2023-03-04T11:36:51;96178.38;;;12.29;90.31
33185;BME280;19550;42.872;25.494;2023-03-04T11:39:34;96178.22;;;12.47;89.81
33185;BME280;19550;42.872;25.494;2023-03-04T11:42:09;96174.03;;;12.61;89.62
33185;BME280;19550;42.872;25.494;2023-03-04T11:44:38;96178.25;;;12.67;88.64
33185;BME280;19550;42.872;25.494;2023-03-04T11:47:20;96167.38;;;12.95;87.83
33185;BME280;19550;42.872;25.494;2023-03-04T11:55:45;96160.16;;;13.15;85.43
33185;BME280;19550;42.872;25.494;2023-03-04T11:58:36;96160.47;;;12.81;85.57
33185;BME280;19550;42.872;25.494;2023-03-04T12:01:08;96160.88;;;12.50;87.60
33185;BME280;19550;42.872;25.494;2023-03-04T12:04:02;96150.63;;;12.42;88.01
33185;BME280;19550;42.872;25.494;2023-03-04T12:06:41;96155.06;;;12.43;88.64
33185;BME280;19550;42.872;25.494;2023-03-04T12:09:28;96154.38;;;12.46;88.17
33185;BME280;19550;42.872;25.494;2023-03-04T12:12:15;96152.72;;;12.45;88.06
33185;BME280;19550;42.872;25.494;2023-03-04T12:14:50;96158.00;;;12.38;87.36
33185;BME280;19550;42.872;25.494;2023-03-04T12:17:33;96151.09;;;12.44;88.79
33185;BME280;19550;42.872;25.494;2023-03-04T12:23:08;96142.69;;;12.52;89.28
33185;BME280;19550;42.872;25.494;2023-03-04T12:25:42;96139.34;;;12.80;88.53
33185;BME280;19550;42.872;25.494;2023-03-04T12:28:29;96146.00;;;12.87;86.40
33185;BME280;19550;42.872;25.494;2023-03-04T12:31:07;96150.38;;;12.76;84.41
33185;BME280;19550;42.872;25.494;2023-03-04T12:33:47;96138.00;;;12.86;84.99
33185;BME280;19550;42.872;25.494;2023-03-04T12:36:26;96129.44;;;12.70;86.34
33185;BME280;19550;42.872;25.494;2023-03-04T12:39:14;96130.69;;;12.81;86.11
33185;BME280;19550;42.872;25.494;2023-03-04T12:41:48;96136.53;;;12.67;86.74
33185;BME280;19550;42.872;25.494;2023-03-04T12:44:21;96127.84;;;12.69;86.39
33185;BME280;19550;42.872;25.494;2023-03-04T12:47:10;96130.53;;;12.57;86.42
33185;BME280;19550;42.872;25.494;2023-03-04T12:49:54;96130.91;;;12.34;86.26
33185;BME280;19550;42.872;25.494;2023-03-04T12:52:36;96127.09;;;12.39;88.70
33185;BME280;19550;42.872;25.494;2023-03-04T12:55:09;96127.69;;;12.24;86.19
33185;BME280;19550;42.872;25.494;2023-03-04T12:57:37;96121.31;;;12.23;85.44
33185;BME280;19550;42.872;25.494;2023-03-04T13:00:19;96117.94;;;12.18;86.60
33185;BME280;19550;42.872;25.494;2023-03-04T13:02:55;96119.72;;;12.22;86.23
33185;BME280;19550;42.872;25.494;2023-03-04T13:08:35;96115.78;;;12.23;87.22
33185;BME280;19550;42.872;25.494;2023-03-04T13:11:32;96105.13;;;12.25;86.81
33185;BME280;19550;42.872;25.494;2023-03-04T13:14:04;96095.59;;;12.14;87.26